Terminal Aerodrome Forecast
Issued by NWS Charleston, SC

Current Version | Previous Version | Text Only | Print | Product List | Glossary On
Versions: 1 2 3 4 5 6 7 8 9 10 11 12 13 14 15 16
000
FTUS42 KCHS 230529
TAFSAV
TAF
KSAV 230529Z 2306/2406 19005KT P6SM FEW200
     FM231600 17009KT P6SM SCT050
     FM232100 16014G20KT P6SM BKN050 OVC200
     FM240200 16012KT 6SM SHRA BR SCT035 BKN060=

USA.gov is the U.S. government's official web portal to all federal, state and local government web resources and services.